Time;durP1;ratioP1;P1;durP2;ratioP2;P2;SDS_P1;SDS_P2;PMS_P1;PMS_P2;Temp;Humidity;BMP_temperature;BMP_pressure;BME280_temperature;BME280_humidity;BME280_pressure;Samples;Min_cycle;Max_cycle;Signal;HPM_P1;HPM_P2
2022/06/15 00:00:23;;;;;;;;;8.00;8.00;;;;;;;;5037177;28;45436;-71
2022/06/15 00:02:48;;;;;;;;;9.00;8.00;;;;;;;;5036838;28;45402;-71
2022/06/15 00:05:13;;;;;;;;;9.33;6.00;;;;;;;;5037110;28;45217;-71
2022/06/15 00:07:39;;;;;;;;;12.33;9.33;;;;;;;;5037112;28;45215;-72
2022/06/15 00:10:04;;;;;;;;;8.00;8.00;;;;;;;;5037136;28;45782;-71
2022/06/15 00:12:29;;;;;;;;;10.00;8.00;;;;;;;;5036751;28;45365;-71
2022/06/15 00:14:55;;;;;;;;;9.67;8.00;;;;;;;;5036932;28;45371;-71
2022/06/15 00:17:21;;;;;;;;;11.33;10.33;;;;;;;;5036880;28;45429;-71
2022/06/15 00:19:46;;;;;;;;;10.67;8.00;;;;;;;;5037236;28;45165;-71
2022/06/15 00:22:11;;;;;;;;;8.33;8.33;;;;;;;;5036753;28;46605;-71
2022/06/15 00:24:37;;;;;;;;;10.00;6.33;;;;;;;;5036796;28;45551;-71
2022/06/15 00:27:03;;;;;;;;;9.67;9.33;;;;;;;;5036899;28;45266;-71
2022/06/15 00:29:30;;;;;;;;;11.33;8.00;;;;;;;;5037004;28;45368;-71
2022/06/15 00:31:55;;;;;;;;;10.67;8.00;;;;;;;;5037971;28;45531;-71
2022/06/15 00:34:20;;;;;;;;;10.00;7.00;;;;;;;;5040143;28;45479;-71
2022/06/15 00:36:45;;;;;;;;;11.33;9.67;;;;;;;;5040101;28;45296;-71
2022/06/15 00:39:10;;;;;;;;;8.33;8.00;;;;;;;;5040379;28;45289;-71
2022/06/15 00:41:37;;;;;;;;;12.00;7.00;;;;;;;;5038347;28;45349;-71
2022/06/15 00:44:21;;;;;;;;;11.33;9.33;;;;;;;;5040064;28;45213;-71
2022/06/15 00:46:47;;;;;;;;;9.00;9.00;;;;;;;;5055384;28;45402;-71
2022/06/15 00:49:15;;;;;;;;;11.00;8.67;;;;;;;;5040060;28;45423;-71
2022/06/15 00:51:41;;;;;;;;;15.00;10.00;;;;;;;;5039752;28;45328;-71
2022/06/15 00:54:06;;;;;;;;;8.00;8.00;;;;;;;;5038899;28;45270;-70
2022/06/15 00:56:32;;;;;;;;;10.67;9.33;;;;;;;;5039969;28;45307;-71
2022/06/15 00:59:01;;;;;;;;;8.67;8.00;;;;;;;;5039959;28;45359;-71
2022/06/15 01:01:26;;;;;;;;;11.33;10.33;;;;;;;;5039364;28;46680;-70
2022/06/15 01:03:53;;;;;;;;;10.00;7.00;;;;;;;;5039828;28;45285;-71
2022/06/15 01:06:27;;;;;;;;;8.33;8.33;;;;;;;;5039940;28;45294;-71
2022/06/15 01:09:04;;;;;;;;;7.67;7.67;;;;;;;;5039490;28;45160;-71
2022/06/15 01:11:32;;;;;;;;;6.33;6.00;;;;;;;;5039002;28;46649;-71
2022/06/15 01:14:26;;;;;;;;;8.33;7.33;;;;;;;;5039510;28;45433;-70
2022/06/15 01:17:11;;;;;;;;;7.33;6.33;;;;;;;;5034348;28;45382;-71
2022/06/15 01:19:45;;;;;;;;;10.67;9.33;;;;;;;;5039639;28;45376;-71
2022/06/15 01:22:28;;;;;;;;;11.33;9.33;;;;;;;;5039367;28;46152;-71
2022/06/15 01:25:20;;;;;;;;;10.33;9.00;;;;;;;;5039160;28;45421;-71
2022/06/15 01:28:08;;;;;;;;;8.33;7.33;;;;;;;;5038153;28;45763;-71
2022/06/15 01:31:06;;;;;;;;;12.33;9.33;;;;;;;;5017568;28;45481;-71
2022/06/15 01:33:58;;;;;;;;;11.33;7.33;;;;;;;;4958066;28;46648;-71
2022/06/15 01:36:33;;;;;;;;;9.00;8.67;;;;;;;;4943245;28;46448;-71
2022/06/15 01:39:19;;;;;;;;;10.00;9.00;;;;;;;;4958175;28;45494;-71
2022/06/15 01:41:45;;;;;;;;;9.00;7.67;;;;;;;;4958454;28;45264;-71
2022/06/15 01:44:19;;;;;;;;;10.67;8.33;;;;;;;;4957683;28;45475;-71
2022/06/15 01:46:46;;;;;;;;;13.67;9.00;;;;;;;;4957897;28;45427;-71
2022/06/15 01:49:32;;;;;;;;;11.00;9.33;;;;;;;;4957981;28;45363;-71
2022/06/15 01:52:00;;;;;;;;;14.33;9.33;;;;;;;;4958245;28;45418;-71
2022/06/15 01:54:30;;;;;;;;;9.33;9.33;;;;;;;;4957592;28;45582;-71
2022/06/15 01:56:57;;;;;;;;;9.33;7.00;;;;;;;;4957886;28;45416;-71
2022/06/15 01:59:32;;;;;;;;;12.33;10.00;;;;;;;;4957691;28;45454;-71
2022/06/15 02:02:03;;;;;;;;;10.33;7.00;;;;;;;;4957128;28;45561;-70
2022/06/15 02:04:33;;;;;;;;;11.33;7.33;;;;;;;;4956661;28;46198;-71
2022/06/15 02:06:58;;;;;;;;;7.33;7.00;;;;;;;;4957541;28;45423;-71
2022/06/15 02:09:37;;;;;;;;;8.67;8.67;;;;;;;;5006806;28;46087;-71
2022/06/15 02:12:05;;;;;;;;;10.33;7.00;;;;;;;;5038839;28;45351;-71
2022/06/15 02:14:41;;;;;;;;;10.00;7.67;;;;;;;;5038439;28;45283;-71
2022/06/15 02:17:10;;;;;;;;;10.67;8.33;;;;;;;;5038403;28;45454;-71
2022/06/15 02:19:39;;;;;;;;;7.00;7.00;;;;;;;;5038665;28;45278;-71
2022/06/15 02:22:06;;;;;;;;;15.00;8.33;;;;;;;;5038842;28;45357;-71
2022/06/15 02:24:32;;;;;;;;;13.67;10.00;;;;;;;;5038052;28;47813;-71
2022/06/15 02:26:58;;;;;;;;;9.33;9.33;;;;;;;;5038250;28;45507;-71
2022/06/15 02:29:25;;;;;;;;;8.33;6.33;;;;;;;;5038503;28;45384;-71
2022/06/15 02:31:54;;;;;;;;;7.67;7.00;;;;;;;;5038528;28;45487;-70
2022/06/15 02:34:19;;;;;;;;;7.00;7.00;;;;;;;;5038259;28;46202;-71
2022/06/15 02:36:44;;;;;;;;;8.00;7.33;;;;;;;;5038139;28;45439;-71
2022/06/15 02:39:10;;;;;;;;;6.00;4.33;;;;;;;;5038216;28;45242;-71
2022/06/15 02:41:36;;;;;;;;;6.00;6.00;;;;;;;;5038672;28;45206;-71
2022/06/15 02:44:03;;;;;;;;;7.67;5.33;;;;;;;;5038026;28;45657;-70
2022/06/15 02:46:29;;;;;;;;;5.67;5.67;;;;;;;;5038334;28;45352;-71
2022/06/15 02:48:55;;;;;;;;;9.33;7.67;;;;;;;;5038190;28;45329;-71
2022/06/15 02:51:21;;;;;;;;;10.00;6.00;;;;;;;;5038156;28;45485;-71
2022/06/15 02:53:48;;;;;;;;;7.67;6.00;;;;;;;;5037636;28;45638;-72
2022/06/15 02:56:14;;;;;;;;;7.00;5.00;;;;;;;;5037604;28;45340;-71
2022/06/15 02:58:41;;;;;;;;;7.00;5.33;;;;;;;;5037849;28;45424;-71
2022/06/15 03:01:07;;;;;;;;;9.00;9.00;;;;;;;;5038247;28;45233;-71
2022/06/15 03:03:33;;;;;;;;;5.67;5.67;;;;;;;;5037660;28;46609;-71
2022/06/15 03:05:58;;;;;;;;;8.33;7.33;;;;;;;;5038063;28;45366;-71
2022/06/15 03:08:23;;;;;;;;;8.00;7.00;;;;;;;;5037833;28;45440;-71
2022/06/15 03:10:49;;;;;;;;;11.00;11.00;;;;;;;;5037818;28;45227;-71
2022/06/15 03:13:14;;;;;;;;;8.67;8.67;;;;;;;;5037785;28;46753;-71
2022/06/15 03:15:40;;;;;;;;;9.67;7.67;;;;;;;;5037591;28;45436;-71
2022/06/15 03:18:05;;;;;;;;;12.00;8.33;;;;;;;;5037990;28;45290;-71
2022/06/15 03:20:30;;;;;;;;;11.67;8.67;;;;;;;;5037857;28;45507;-71
2022/06/15 03:22:56;;;;;;;;;6.67;6.00;;;;;;;;5037324;28;46508;-71
2022/06/15 03:25:21;;;;;;;;;10.33;7.00;;;;;;;;5019622;28;45430;-71
2022/06/15 03:27:46;;;;;;;;;7.67;6.33;;;;;;;;5036155;28;45455;-71
2022/06/15 03:30:12;;;;;;;;;11.33;8.67;;;;;;;;5037766;28;45306;-71
2022/06/15 03:32:37;;;;;;;;;14.00;9.33;;;;;;;;5037340;28;47476;-71
2022/06/15 03:35:03;;;;;;;;;10.33;9.00;;;;;;;;5037534;28;45249;-71
2022/06/15 03:37:28;;;;;;;;;11.00;9.33;;;;;;;;5037168;28;45207;-71
2022/06/15 03:39:54;;;;;;;;;9.00;9.00;;;;;;;;5037501;28;45338;-71
2022/06/15 03:42:22;;;;;;;;;12.33;8.67;;;;;;;;5037204;28;47280;-71
2022/06/15 03:44:47;;;;;;;;;9.33;7.00;;;;;;;;5036060;28;45361;-71
2022/06/15 03:47:19;;;;;;;;;8.33;8.33;;;;;;;;5036982;28;45385;-71
2022/06/15 03:49:45;;;;;;;;;9.00;8.33;;;;;;;;5037391;28;45458;-71
2022/06/15 03:52:11;;;;;;;;;8.33;8.33;;;;;;;;5036948;28;46507;-71
2022/06/15 03:54:37;;;;;;;;;9.67;8.00;;;;;;;;5037005;28;45251;-71
2022/06/15 03:57:02;;;;;;;;;9.67;8.33;;;;;;;;5037272;28;45193;-71
2022/06/15 03:59:28;;;;;;;;;10.33;9.00;;;;;;;;5037039;28;45477;-71
2022/06/15 04:01:53;;;;;;;;;10.00;9.00;;;;;;;;5037009;28;46130;-71
2022/06/15 04:04:18;;;;;;;;;11.00;8.33;;;;;;;;5036841;28;45466;-71
2022/06/15 04:06:44;;;;;;;;;9.67;7.67;;;;;;;;5038204;28;45317;-71
2022/06/15 04:09:09;;;;;;;;;10.33;8.00;;;;;;;;5040469;28;45512;-71
2022/06/15 04:14:18;;;;;;;;;10.67;7.67;;;;;;;;5040577;28;45322;-71
2022/06/15 04:16:43;;;;;;;;;18.00;13.33;;;;;;;;5040527;28;45527;-71
2022/06/15 04:19:11;;;;;;;;;7.33;5.67;;;;;;;;5040786;28;45313;-71
2022/06/15 04:21:36;;;;;;;;;12.33;8.00;;;;;;;;5040308;28;46571;-71
2022/06/15 04:24:02;;;;;;;;;11.67;8.33;;;;;;;;5040112;28;45425;-71
2022/06/15 04:26:27;;;;;;;;;10.00;8.33;;;;;;;;5040359;28;45663;-72
2022/06/15 04:28:53;;;;;;;;;7.00;6.33;;;;;;;;5040456;28;45392;-71
2022/06/15 04:31:18;;;;;;;;;9.33;7.00;;;;;;;;5040204;28;46107;-71
2022/06/15 04:33:43;;;;;;;;;14.00;10.00;;;;;;;;5039881;28;45402;-71
2022/06/15 04:36:12;;;;;;;;;7.00;7.00;;;;;;;;5039946;28;45491;-72
2022/06/15 04:38:37;;;;;;;;;11.67;8.33;;;;;;;;5040349;28;45512;-71
2022/06/15 04:41:03;;;;;;;;;7.00;7.00;;;;;;;;5039808;28;46299;-72
2022/06/15 04:43:28;;;;;;;;;9.33;7.00;;;;;;;;5039814;28;45338;-71
2022/06/15 04:45:54;;;;;;;;;9.33;8.33;;;;;;;;5040274;28;45358;-71
2022/06/15 04:48:19;;;;;;;;;7.00;7.00;;;;;;;;5040034;28;45357;-71
2022/06/15 04:50:44;;;;;;;;;6.67;6.33;;;;;;;;5021591;28;46839;-71
2022/06/15 04:53:10;;;;;;;;;9.33;7.67;;;;;;;;5040078;28;45436;-71
2022/06/15 04:55:35;;;;;;;;;9.67;6.00;;;;;;;;5039829;28;45721;-71
2022/06/15 04:58:01;;;;;;;;;7.00;6.00;;;;;;;;5040137;28;45361;-71
2022/06/15 05:00:29;;;;;;;;;10.00;7.00;;;;;;;;5039653;28;46479;-71
2022/06/15 05:02:54;;;;;;;;;7.67;6.00;;;;;;;;5039787;28;45239;-72
2022/06/15 05:05:20;;;;;;;;;8.33;6.00;;;;;;;;5039815;28;45405;-71
2022/06/15 05:07:46;;;;;;;;;10.33;7.00;;;;;;;;5039831;28;45220;-72
2022/06/15 05:10:14;;;;;;;;;8.00;6.67;;;;;;;;5039417;28;45479;-72
2022/06/15 05:12:39;;;;;;;;;9.00;8.67;;;;;;;;5039448;28;45259;-72
2022/06/15 05:15:05;;;;;;;;;9.00;9.00;;;;;;;;5039549;28;45317;-71
2022/06/15 05:17:30;;;;;;;;;7.00;7.00;;;;;;;;5039465;28;45311;-71
2022/06/15 05:19:55;;;;;;;;;8.33;7.00;;;;;;;;5039267;28;45425;-71
2022/06/15 05:22:20;;;;;;;;;12.00;9.33;;;;;;;;5039634;28;45337;-71
2022/06/15 05:24:46;;;;;;;;;10.00;8.33;;;;;;;;5038630;28;45327;-72
2022/06/15 05:27:11;;;;;;;;;7.67;6.33;;;;;;;;5039536;28;45338;-72
2022/06/15 05:29:37;;;;;;;;;8.33;8.33;;;;;;;;5039023;28;45334;-71
2022/06/15 05:32:03;;;;;;;;;8.33;7.00;;;;;;;;5039273;28;45361;-71
2022/06/15 05:34:28;;;;;;;;;8.33;8.33;;;;;;;;5039557;28;45270;-71
2022/06/15 05:36:54;;;;;;;;;8.33;7.33;;;;;;;;5039390;28;45283;-71
2022/06/15 05:39:19;;;;;;;;;10.67;10.67;;;;;;;;5038997;28;45865;-71
2022/06/15 05:41:44;;;;;;;;;11.67;9.00;;;;;;;;5039166;28;45413;-71
2022/06/15 05:46:35;;;;;;;;;7.33;7.00;;;;;;;;5039372;28;45457;-71
2022/06/15 05:49:02;;;;;;;;;9.33;7.33;;;;;;;;5037062;28;46229;-71
2022/06/15 05:51:27;;;;;;;;;11.67;7.67;;;;;;;;5038762;28;45305;-72
2022/06/15 05:53:52;;;;;;;;;8.00;7.00;;;;;;;;5039066;28;45377;-71
2022/06/15 05:56:18;;;;;;;;;7.00;7.00;;;;;;;;5038727;28;45522;-71
2022/06/15 05:58:43;;;;;;;;;5.00;4.00;;;;;;;;5038663;28;45582;-71
2022/06/15 06:01:15;;;;;;;;;7.67;7.67;;;;;;;;5038824;28;45321;-71
2022/06/15 06:03:40;;;;;;;;;8.00;6.00;;;;;;;;5038825;28;45325;-72
2022/06/15 06:06:06;;;;;;;;;8.00;8.00;;;;;;;;5039122;28;45503;-71
2022/06/15 06:08:31;;;;;;;;;8.00;6.00;;;;;;;;5038483;28;45310;-71
2022/06/15 06:10:57;;;;;;;;;6.67;6.00;;;;;;;;5038521;28;45326;-71
2022/06/15 06:13:22;;;;;;;;;11.33;9.33;;;;;;;;5038715;28;45274;-72
2022/06/15 06:15:47;;;;;;;;;12.33;10.33;;;;;;;;5038385;28;45698;-71
2022/06/15 06:18:13;;;;;;;;;9.33;6.00;;;;;;;;5038565;28;45613;-71
2022/06/15 06:20:39;;;;;;;;;9.00;6.00;;;;;;;;5038424;28;45804;-71
2022/06/15 06:23:04;;;;;;;;;7.00;5.67;;;;;;;;5038715;28;45299;-72
2022/06/15 06:25:29;;;;;;;;;8.00;8.00;;;;;;;;5038438;28;45306;-71
2022/06/15 06:27:54;;;;;;;;;8.67;6.00;;;;;;;;5038215;28;45395;-72
2022/06/15 06:30:21;;;;;;;;;9.00;8.00;;;;;;;;5037488;28;45269;-71
2022/06/15 06:32:47;;;;;;;;;10.00;7.00;;;;;;;;5038427;28;45323;-72
2022/06/15 06:35:12;;;;;;;;;7.33;7.00;;;;;;;;5038660;28;45484;-72
2022/06/15 06:37:37;;;;;;;;;10.00;9.33;;;;;;;;5037990;28;46262;-71
2022/06/15 06:40:03;;;;;;;;;8.00;7.33;;;;;;;;5036849;28;45383;-71
2022/06/15 06:42:28;;;;;;;;;10.33;9.67;;;;;;;;5038374;28;45432;-72
2022/06/15 06:44:53;;;;;;;;;14.00;10.00;;;;;;;;5038398;28;45310;-71
2022/06/15 06:47:18;;;;;;;;;9.00;9.00;;;;;;;;5037983;28;45363;-72
2022/06/15 06:49:44;;;;;;;;;7.67;7.67;;;;;;;;5037910;28;45341;-71
2022/06/15 06:52:09;;;;;;;;;11.33;8.33;;;;;;;;5038145;28;45250;-72
2022/06/15 06:54:34;;;;;;;;;12.33;10.67;;;;;;;;5037567;28;45330;-71
2022/06/15 06:57:00;;;;;;;;;11.00;8.00;;;;;;;;5037464;28;45604;-71
2022/06/15 06:59:25;;;;;;;;;7.67;7.33;;;;;;;;5037747;28;45160;-71
2022/06/15 07:01:50;;;;;;;;;12.33;11.00;;;;;;;;5037734;28;45513;-71
2022/06/15 07:04:16;;;;;;;;;10.33;9.00;;;;;;;;5038070;28;45192;-71
2022/06/15 07:06:42;;;;;;;;;11.67;10.33;;;;;;;;5037636;28;45674;-71
2022/06/15 07:09:08;;;;;;;;;11.00;10.00;;;;;;;;5036524;28;45391;-72
2022/06/15 07:11:34;;;;;;;;;11.33;10.67;;;;;;;;5037832;28;45297;-72
2022/06/15 07:13:59;;;;;;;;;13.00;11.00;;;;;;;;5037882;28;45316;-71
2022/06/15 07:16:24;;;;;;;;;16.00;11.33;;;;;;;;5037162;28;45372;-72
2022/06/15 07:18:50;;;;;;;;;10.67;10.00;;;;;;;;5037429;28;45477;-72
2022/06/15 07:21:19;;;;;;;;;11.33;8.33;;;;;;;;5037712;28;45337;-71
2022/06/15 07:23:46;;;;;;;;;4.33;3.67;;;;;;;;5037863;28;45541;-72
2022/06/15 07:26:13;;;;;;;;;13.67;11.33;;;;;;;;5037307;28;45221;-72
2022/06/15 07:28:39;;;;;;;;;9.00;7.33;;;;;;;;5035924;28;45391;-71
2022/06/15 07:31:05;;;;;;;;;9.33;9.00;;;;;;;;5037321;28;45444;-70
2022/06/15 07:33:30;;;;;;;;;12.00;9.00;;;;;;;;5037665;28;45293;-71
2022/06/15 07:35:56;;;;;;;;;10.33;8.33;;;;;;;;5037416;28;45490;-70
2022/06/15 07:38:21;;;;;;;;;7.67;7.67;;;;;;;;5037352;28;45427;-71
2022/06/15 07:40:47;;;;;;;;;13.33;8.00;;;;;;;;5037051;28;45448;-70
2022/06/15 07:43:12;;;;;;;;;13.00;9.00;;;;;;;;5037576;28;45548;-71
2022/06/15 07:45:38;;;;;;;;;12.00;10.00;;;;;;;;5037190;28;46464;-71
2022/06/15 07:50:47;;;;;;;;;10.00;6.00;;;;;;;;5037434;28;45337;-68
2022/06/15 07:53:13;;;;;;;;;8.00;7.00;;;;;;;;5037093;28;45739;-68
2022/06/15 07:55:40;;;;;;;;;8.33;6.33;;;;;;;;5036318;28;45756;-68
2022/06/15 07:58:06;;;;;;;;;13.00;9.00;;;;;;;;5018613;28;45340;-67
2022/06/15 08:00:32;;;;;;;;;7.00;6.33;;;;;;;;5036556;28;45176;-67
2022/06/15 08:03:01;;;;;;;;;9.00;7.00;;;;;;;;5037114;28;45401;-68
2022/06/15 08:05:27;;;;;;;;;9.67;7.00;;;;;;;;5036292;28;46199;-69
2022/06/15 08:07:53;;;;;;;;;7.33;7.33;;;;;;;;5035967;28;45261;-68
2022/06/15 08:10:20;;;;;;;;;8.00;6.67;;;;;;;;5036671;28;45242;-68
2022/06/15 08:12:45;;;;;;;;;6.67;5.67;;;;;;;;5036415;28;45287;-68
2022/06/15 08:15:11;;;;;;;;;8.00;5.33;;;;;;;;5036938;28;46224;-68
2022/06/15 08:17:38;;;;;;;;;5.33;5.33;;;;;;;;5036274;28;45357;-67
2022/06/15 08:20:06;;;;;;;;;7.67;5.00;;;;;;;;5036969;28;45223;-68
2022/06/15 08:22:33;;;;;;;;;8.00;7.00;;;;;;;;5036640;28;45492;-68
2022/06/15 08:25:00;;;;;;;;;8.33;7.00;;;;;;;;5036035;28;45401;-67
2022/06/15 08:27:25;;;;;;;;;7.33;5.67;;;;;;;;5035730;28;45369;-68
2022/06/15 08:29:50;;;;;;;;;6.33;6.33;;;;;;;;5036075;28;45254;-67
2022/06/15 08:32:16;;;;;;;;;6.00;4.33;;;;;;;;5036097;28;45531;-69
2022/06/15 08:34:42;;;;;;;;;6.00;6.00;;;;;;;;5035336;28;46664;-68
2022/06/15 08:37:08;;;;;;;;;9.33;6.33;;;;;;;;5035701;28;45343;-68
2022/06/15 08:39:34;;;;;;;;;5.33;5.33;;;;;;;;5036003;28;45362;-68
2022/06/15 08:42:16;;;;;;;;;7.00;7.00;;;;;;;;5036153;28;45389;-68
2022/06/15 08:45:00;;;;;;;;;7.67;7.00;;;;;;;;5036363;28;46336;-68
2022/06/15 08:47:43;;;;;;;;;9.00;6.00;;;;;;;;5036279;28;45270;-68
2022/06/15 08:50:12;;;;;;;;;9.33;5.67;;;;;;;;5036419;28;45564;-68
2022/06/15 08:53:04;;;;;;;;;9.00;8.00;;;;;;;;5037289;28;45861;-68
2022/06/15 08:55:32;;;;;;;;;7.00;5.00;;;;;;;;5036364;28;47263;-69
2022/06/15 08:58:01;;;;;;;;;9.67;8.00;;;;;;;;5037363;28;45363;-68
2022/06/15 09:00:26;;;;;;;;;5.33;5.33;;;;;;;;5037475;28;45427;-69
2022/06/15 09:03:04;;;;;;;;;6.67;6.33;;;;;;;;5037474;28;45350;-68
2022/06/15 09:05:32;;;;;;;;;8.33;7.00;;;;;;;;5036785;28;45297;-68
2022/06/15 09:07:58;;;;;;;;;5.00;5.00;;;;;;;;5037391;28;45288;-68
2022/06/15 09:10:23;;;;;;;;;8.00;6.67;;;;;;;;5036917;28;45705;-67
2022/06/15 09:12:58;;;;;;;;;7.00;5.00;;;;;;;;5037358;28;45302;-68
2022/06/15 09:15:42;;;;;;;;;6.33;6.33;;;;;;;;5034167;28;46489;-68
2022/06/15 09:18:26;;;;;;;;;9.67;6.67;;;;;;;;5037438;28;45300;-68
2022/06/15 09:20:57;;;;;;;;;11.00;6.67;;;;;;;;5037353;28;45414;-68
2022/06/15 09:23:32;;;;;;;;;2.67;2.67;;;;;;;;5037407;28;45291;-68
2022/06/15 09:26:05;;;;;;;;;10.00;9.00;;;;;;;;5036903;28;45528;-68
2022/06/15 09:28:54;;;;;;;;;8.00;6.33;;;;;;;;5036938;28;45365;-68
2022/06/15 09:31:21;;;;;;;;;7.00;6.00;;;;;;;;4977297;28;45387;-68
2022/06/15 09:33:50;;;;;;;;;10.00;8.00;;;;;;;;4977277;28;45502;-68
2022/06/15 09:36:21;;;;;;;;;6.67;6.00;;;;;;;;4977573;28;45373;-68
2022/06/15 09:38:47;;;;;;;;;8.33;8.00;;;;;;;;4977577;28;45406;-68
2022/06/15 09:41:19;;;;;;;;;6.67;6.33;;;;;;;;4977622;28;45450;-69
2022/06/15 09:43:58;;;;;;;;;8.33;8.00;;;;;;;;4978028;28;45399;-69
2022/06/15 09:46:42;;;;;;;;;13.67;10.00;;;;;;;;4977290;28;45974;-69
2022/06/15 09:49:21;;;;;;;;;9.00;7.67;;;;;;;;4974185;28;45298;-69
2022/06/15 09:51:52;;;;;;;;;8.67;7.00;;;;;;;;4971732;28;45290;-68
2022/06/15 09:54:33;;;;;;;;;8.00;5.67;;;;;;;;4976881;28;45322;-69
2022/06/15 09:56:58;;;;;;;;;10.00;8.33;;;;;;;;4972939;28;47420;-69
2022/06/15 09:59:24;;;;;;;;;9.00;6.67;;;;;;;;4975988;28;45495;-67
2022/06/15 10:01:49;;;;;;;;;10.67;7.00;;;;;;;;4977012;28;45372;-67
2022/06/15 10:04:17;;;;;;;;;8.00;6.00;;;;;;;;4975905;28;45328;-67
2022/06/15 10:06:46;;;;;;;;;7.00;7.00;;;;;;;;4976816;28;45439;-68
2022/06/15 10:09:15;;;;;;;;;7.00;7.00;;;;;;;;5011394;28;45458;-68
2022/06/15 10:11:43;;;;;;;;;9.75;8.00;;;;;;;;5017309;28;45452;-68
2022/06/15 10:14:27;;;;;;;;;8.75;7.25;;;;;;;;5018007;28;45145;-68
2022/06/15 10:17:00;;;;;;;;;4.50;4.50;;;;;;;;5015127;28;46386;-68
2022/06/15 10:19:30;;;;;;;;;6.75;5.00;;;;;;;;5018010;28;45339;-67
2022/06/15 10:22:08;;;;;;;;;5.75;5.75;;;;;;;;5017721;28;45477;-68
2022/06/15 10:24:39;;;;;;;;;7.75;6.50;;;;;;;;5018015;28;45403;-67
2022/06/15 10:27:16;;;;;;;;;7.00;5.25;;;;;;;;5017773;28;46206;-69
2022/06/15 10:29:43;;;;;;;;;6.75;6.75;;;;;;;;5017831;28;45864;-68
2022/06/15 10:32:08;;;;;;;;;8.75;6.75;;;;;;;;5017910;28;45491;-68
2022/06/15 10:34:53;;;;;;;;;9.00;7.00;;;;;;;;5018042;28;45340;-67
2022/06/15 10:37:25;;;;;;;;;8.00;6.25;;;;;;;;5017280;28;46722;-69
2022/06/15 10:39:52;;;;;;;;;11.00;8.00;;;;;;;;5014217;28;45467;-67
2022/06/15 10:42:33;;;;;;;;;5.50;5.50;;;;;;;;5017548;28;45321;-67
2022/06/15 10:45:00;;;;;;;;;4.25;4.25;;;;;;;;5018107;28;45436;-67
2022/06/15 10:47:27;;;;;;;;;7.75;6.50;;;;;;;;5017692;28;46181;-67
2022/06/15 10:49:58;;;;;;;;;7.00;7.00;;;;;;;;5017939;28;45406;-67
2022/06/15 10:52:23;;;;;;;;;4.00;4.00;;;;;;;;5017760;28;45338;-67
2022/06/15 11:03:16;;;;;;;;;6.50;6.00;;;;;;;;5038100;28;45212;-67
2022/06/15 11:05:43;;;;;;;;;6.75;5.25;;;;;;;;5038061;28;45468;-67
2022/06/15 11:08:13;;;;;;;;;7.25;5.50;;;;;;;;5037560;28;46282;-67
2022/06/15 11:10:40;;;;;;;;;6.00;4.00;;;;;;;;5037925;28;45980;-67
2022/06/15 11:13:24;;;;;;;;;8.00;5.25;;;;;;;;5037485;28;45348;-67
2022/06/15 11:18:45;;;;;;;;;5.50;5.50;;;;;;;;5037208;28;45389;-67
2022/06/15 11:21:14;;;;;;;;;9.25;6.75;;;;;;;;5037403;28;45319;-67
2022/06/15 11:23:45;;;;;;;;;7.25;6.00;;;;;;;;5037600;28;45307;-67
2022/06/15 11:28:58;;;;;;;;;6.33;5.67;;;;;;;;5036845;28;45931;-68
2022/06/15 11:31:26;;;;;;;;;6.67;6.67;;;;;;;;5037333;28;45472;-68
2022/06/15 11:34:04;;;;;;;;;6.67;6.67;;;;;;;;5037584;28;45455;-67
2022/06/15 11:36:32;;;;;;;;;5.00;5.00;;;;;;;;5037560;28;45507;-67
2022/06/15 11:39:19;;;;;;;;;7.33;5.67;;;;;;;;5037054;28;46664;-68
2022/06/15 11:41:48;;;;;;;;;14.00;13.33;;;;;;;;5035888;28;45302;-68
2022/06/15 11:44:16;;;;;;;;;7.67;6.00;;;;;;;;5036685;28;45222;-67
2022/06/15 11:46:53;;;;;;;;;4.00;4.00;;;;;;;;5035990;28;45587;-68
2022/06/15 11:49:18;;;;;;;;;8.67;8.67;;;;;;;;5035973;28;46766;-68
2022/06/15 11:52:02;;;;;;;;;7.00;7.00;;;;;;;;5036383;28;45330;-67
2022/06/15 11:54:46;;;;;;;;;5.67;5.67;;;;;;;;5035055;28;45420;-71
2022/06/15 11:57:30;;;;;;;;;7.00;7.00;;;;;;;;5034879;28;45409;-70
2022/06/15 11:59:55;;;;;;;;;12.00;9.00;;;;;;;;5033860;28;46033;-70
2022/06/15 12:02:23;;;;;;;;;7.00;7.00;;;;;;;;5035333;28;45459;-70
2022/06/15 12:04:56;;;;;;;;;5.67;5.67;;;;;;;;5035550;28;45317;-70
2022/06/15 12:07:29;;;;;;;;;9.00;7.67;;;;;;;;5035689;28;45368;-69
2022/06/15 12:10:03;;;;;;;;;9.00;7.33;;;;;;;;5035295;28;45584;-69
2022/06/15 12:12:46;;;;;;;;;6.67;6.67;;;;;;;;5034982;28;45382;-68
2022/06/15 12:15:26;;;;;;;;;10.33;9.00;;;;;;;;5033309;28;45227;-69
2022/06/15 12:17:57;;;;;;;;;9.00;7.67;;;;;;;;5033471;28;45333;-68
2022/06/15 12:20:32;;;;;;;;;9.67;7.33;;;;;;;;5035123;28;45354;-69
2022/06/15 12:23:12;;;;;;;;;9.00;6.33;;;;;;;;5033891;28;45510;-69
2022/06/15 12:25:50;;;;;;;;;9.00;6.33;;;;;;;;5033927;28;45332;-70
2022/06/15 12:28:25;;;;;;;;;7.67;6.67;;;;;;;;5037026;28;45176;-69
2022/06/15 12:30:57;;;;;;;;;14.67;9.67;;;;;;;;5038776;28;47267;-69
2022/06/15 12:33:28;;;;;;;;;11.00;9.33;;;;;;;;5039026;28;45287;-67
2022/06/15 12:36:03;;;;;;;;;9.67;9.00;;;;;;;;5038817;28;45368;-70
2022/06/15 12:38:36;;;;;;;;;11.67;10.33;;;;;;;;5039008;28;45481;-70
2022/06/15 12:41:06;;;;;;;;;7.00;7.00;;;;;;;;5038997;28;46270;-69
2022/06/15 12:43:32;;;;;;;;;10.67;7.67;;;;;;;;5038406;28;45471;-69
2022/06/15 12:46:17;;;;;;;;;14.00;9.00;;;;;;;;5039026;28;45301;-70
2022/06/15 12:48:52;;;;;;;;;12.33;7.33;;;;;;;;5038835;28;45532;-70
2022/06/15 12:51:37;;;;;;;;;8.00;7.00;;;;;;;;5039160;28;46296;-69
2022/06/15 12:54:25;;;;;;;;;8.33;8.33;;;;;;;;5038430;28;45437;-69
2022/06/15 12:57:11;;;;;;;;;7.33;6.67;;;;;;;;4997116;28;45426;-69
2022/06/15 12:59:45;;;;;;;;;150.67;128.33;;;;;;;;4957313;28;45355;-70
2022/06/15 13:02:16;;;;;;;;;8.33;6.00;;;;;;;;4958206;28;46469;-70
2022/06/15 13:04:53;;;;;;;;;6.00;6.00;;;;;;;;4957543;28;45466;-69
2022/06/15 13:07:29;;;;;;;;;8.67;8.67;;;;;;;;4957265;28;45490;-68
2022/06/15 13:10:06;;;;;;;;;8.00;8.00;;;;;;;;4957983;28;45273;-68
2022/06/15 13:12:43;;;;;;;;;9.67;8.00;;;;;;;;4957372;28;45502;-68
2022/06/15 13:15:24;;;;;;;;;8.67;6.00;;;;;;;;4954649;28;45398;-68
2022/06/15 13:18:14;;;;;;;;;11.33;9.00;;;;;;;;4957659;28;45357;-67
2022/06/15 13:20:45;;;;;;;;;8.00;8.00;;;;;;;;4955702;28;45430;-68
2022/06/15 13:23:17;;;;;;;;;8.00;8.00;;;;;;;;4954054;28;45582;-68
2022/06/15 13:25:54;;;;;;;;;8.00;6.00;;;;;;;;4953666;28;45470;-68
2022/06/15 13:28:21;;;;;;;;;8.67;8.67;;;;;;;;4953259;28;45674;-68
2022/06/15 13:30:47;;;;;;;;;7.67;7.67;;;;;;;;4953586;28;45754;-67
2022/06/15 13:33:12;;;;;;;;;9.00;6.00;;;;;;;;4958477;28;46263;-68
2022/06/15 13:35:38;;;;;;;;;9.33;7.00;;;;;;;;4977215;28;45522;-68
2022/06/15 13:38:06;;;;;;;;;7.33;7.33;;;;;;;;5036013;28;45480;-67
2022/06/15 13:40:50;;;;;;;;;8.33;8.33;;;;;;;;5034496;28;45403;-67
2022/06/15 13:43:15;;;;;;;;;9.00;7.00;;;;;;;;5034106;28;46298;-67
2022/06/15 13:45:41;;;;;;;;;7.67;7.67;;;;;;;;5036066;28;45406;-69
2022/06/15 13:48:09;;;;;;;;;8.00;8.00;;;;;;;;5035718;28;45429;-67
2022/06/15 13:50:45;;;;;;;;;12.67;9.67;;;;;;;;5036316;28;45455;-68
2022/06/15 13:53:30;;;;;;;;;13.33;12.67;;;;;;;;5035503;28;46190;-68
2022/06/15 13:56:04;;;;;;;;;8.00;7.00;;;;;;;;5033440;28;45428;-68
2022/06/15 13:58:43;;;;;;;;;10.00;7.00;;;;;;;;5032134;28;45500;-68
2022/06/15 14:01:27;;;;;;;;;11.67;8.00;;;;;;;;5035155;28;45792;-68
2022/06/15 14:04:11;;;;;;;;;10.00;8.00;;;;;;;;5032845;28;45516;-68
2022/06/15 14:06:36;;;;;;;;;8.00;8.00;;;;;;;;5033300;28;45436;-68
2022/06/15 14:09:20;;;;;;;;;7.00;7.00;;;;;;;;5035168;28;45904;-68
2022/06/15 14:11:48;;;;;;;;;7.00;7.00;;;;;;;;5034839;28;45353;-68
2022/06/15 14:14:13;;;;;;;;;6.67;6.67;;;;;;;;5034831;28;45530;-68
2022/06/15 14:16:51;;;;;;;;;11.00;8.00;;;;;;;;5035064;28;45439;-69
2022/06/15 14:19:23;;;;;;;;;10.33;9.00;;;;;;;;5017580;28;45823;-69
2022/06/15 14:22:06;;;;;;;;;5.33;5.33;;;;;;;;5035199;28;45559;-67
2022/06/15 14:24:33;;;;;;;;;8.33;7.33;;;;;;;;5034886;28;47428;-67
2022/06/15 14:26:59;;;;;;;;;9.00;8.33;;;;;;;;5034715;28;45441;-67
2022/06/15 14:29:31;;;;;;;;;9.67;8.67;;;;;;;;5034223;28;45853;-68
2022/06/15 14:31:57;;;;;;;;;8.00;8.00;;;;;;;;5034897;28;45654;-67
2022/06/15 14:34:27;;;;;;;;;7.33;7.33;;;;;;;;5034385;28;46315;-67
2022/06/15 14:36:58;;;;;;;;;8.33;7.33;;;;;;;;5034089;28;45545;-67
2022/06/15 14:39:25;;;;;;;;;8.00;8.00;;;;;;;;5034864;28;45318;-67
2022/06/15 14:42:01;;;;;;;;;7.00;7.00;;;;;;;;5034339;28;45437;-66
2022/06/15 14:44:26;;;;;;;;;7.33;6.33;;;;;;;;5037386;28;47175;-67
2022/06/15 14:46:57;;;;;;;;;10.33;10.33;;;;;;;;5037835;28;45410;-67
2022/06/15 14:49:27;;;;;;;;;10.00;8.00;;;;;;;;5037556;28;45223;-68
2022/06/15 14:52:07;;;;;;;;;8.00;6.33;;;;;;;;5033745;28;45611;-70
2022/06/15 14:54:33;;;;;;;;;9.33;7.67;;;;;;;;5035479;28;47283;-69
2022/06/15 14:56:58;;;;;;;;;12.00;8.00;;;;;;;;5036638;28;45238;-67
2022/06/15 14:59:42;;;;;;;;;12.33;10.67;;;;;;;;5037092;28;45252;-71
2022/06/15 15:02:08;;;;;;;;;8.33;7.00;;;;;;;;5037248;28;45523;-70
2022/06/15 15:04:35;;;;;;;;;8.00;6.67;;;;;;;;5036976;28;46324;-69
2022/06/15 15:08:05;;;;;;;;;7.67;6.00;;;;;;;;5036804;28;45480;-70
2022/06/15 15:09:51;;;;;;;;;14.67;13.67;;;;;;;;5036459;28;45655;-70
2022/06/15 15:12:20;;;;;;;;;7.33;7.33;;;;;;;;5037744;28;45224;-66
2022/06/15 15:14:50;;;;;;;;;6.00;5.67;;;;;;;;5036227;28;46446;-70